sensor_id;sensor_type;location;lat;lon;timestamp;temperature;humidity
6357;DHT22;3211;53.452;-2.264;2023-03-07T00:02:13;4.20;96.80
6357;DHT22;3211;53.452;-2.264;2023-03-07T00:04:45;4.30;96.10
6357;DHT22;3211;53.452;-2.264;2023-03-07T00:07:12;4.30;94.40
6357;DHT22;3211;53.452;-2.264;2023-03-07T00:09:39;4.30;95.20
6357;DHT22;3211;53.452;-2.264;2023-03-07T00:12:07;4.30;99.90
6357;DHT22;3211;53.452;-2.264;2023-03-07T00:14:34;4.20;99.90
6357;DHT22;3211;53.452;-2.264;2023-03-07T00:17:01;4.30;99.90
6357;DHT22;3211;53.452;-2.264;2023-03-07T00:19:28;4.30;99.90
6357;DHT22;3211;53.452;-2.264;2023-03-07T00:21:56;4.40;98.70
6357;DHT22;3211;53.452;-2.264;2023-03-07T00:24:23;4.30;94.10
6357;DHT22;3211;53.452;-2.264;2023-03-07T00:26:50;4.20;92.50
6357;DHT22;3211;53.452;-2.264;2023-03-07T00:29:17;4.20;93.00
6357;DHT22;3211;53.452;-2.264;2023-03-07T00:31:44;4.30;96.00
6357;DHT22;3211;53.452;-2.264;2023-03-07T00:34:11;4.20;99.90
6357;DHT22;3211;53.452;-2.264;2023-03-07T00:36:38;4.30;99.90
6357;DHT22;3211;53.452;-2.264;2023-03-07T00:39:06;4.20;99.90
6357;DHT22;3211;53.452;-2.264;2023-03-07T00:41:33;4.00;95.80
6357;DHT22;3211;53.452;-2.264;2023-03-07T00:44:00;4.00;92.70
6357;DHT22;3211;53.452;-2.264;2023-03-07T00:46:27;3.90;92.50
6357;DHT22;3211;53.452;-2.264;2023-03-07T00:48:54;3.80;93.60
6357;DHT22;3211;53.452;-2.264;2023-03-07T00:51:22;3.80;94.80
6357;DHT22;3211;53.452;-2.264;2023-03-07T00:53:49;3.90;97.40
6357;DHT22;3211;53.452;-2.264;2023-03-07T00:56:19;4.00;97.00
6357;DHT22;3211;53.452;-2.264;2023-03-07T00:58:47;3.80;94.00
6357;DHT22;3211;53.452;-2.264;2023-03-07T01:01:16;3.90;97.00
6357;DHT22;3211;53.452;-2.264;2023-03-07T01:03:44;3.90;98.70
6357;DHT22;3211;53.452;-2.264;2023-03-07T01:06:15;3.90;96.20
6357;DHT22;3211;53.452;-2.264;2023-03-07T01:08:43;3.80;96.30
6357;DHT22;3211;53.452;-2.264;2023-03-07T01:11:11;3.80;95.60
6357;DHT22;3211;53.452;-2.264;2023-03-07T01:13:40;3.80;97.40
6357;DHT22;3211;53.452;-2.264;2023-03-07T01:16:08;3.80;98.80
6357;DHT22;3211;53.452;-2.264;2023-03-07T01:18:35;3.80;97.60
6357;DHT22;3211;53.452;-2.264;2023-03-07T01:21:10;3.90;99.90
6357;DHT22;3211;53.452;-2.264;2023-03-07T01:23:37;4.00;97.90
6357;DHT22;3211;53.452;-2.264;2023-03-07T01:26:04;4.00;99.80
6357;DHT22;3211;53.452;-2.264;2023-03-07T01:28:31;4.10;99.90
6357;DHT22;3211;53.452;-2.264;2023-03-07T01:30:59;3.90;98.60
6357;DHT22;3211;53.452;-2.264;2023-03-07T01:33:26;3.80;97.60
6357;DHT22;3211;53.452;-2.264;2023-03-07T01:35:53;3.70;99.30
6357;DHT22;3211;53.452;-2.264;2023-03-07T01:38:20;3.60;99.90
6357;DHT22;3211;53.452;-2.264;2023-03-07T01:40:47;3.70;99.90
6357;DHT22;3211;53.452;-2.264;2023-03-07T01:43:21;3.70;99.90
6357;DHT22;3211;53.452;-2.264;2023-03-07T01:49:22;3.90;99.90
6357;DHT22;3211;53.452;-2.264;2023-03-07T01:51:54;3.80;99.90
6357;DHT22;3211;53.452;-2.264;2023-03-07T01:54:23;3.80;99.90
6357;DHT22;3211;53.452;-2.264;2023-03-07T01:56:51;3.90;99.90
6357;DHT22;3211;53.452;-2.264;2023-03-07T01:59:23;3.90;99.90
6357;DHT22;3211;53.452;-2.264;2023-03-07T02:01:50;3.90;99.90
6357;DHT22;3211;53.452;-2.264;2023-03-07T02:04:24;3.80;99.90
6357;DHT22;3211;53.452;-2.264;2023-03-07T02:06:54;3.80;99.90
6357;DHT22;3211;53.452;-2.264;2023-03-07T02:09:21;3.80;99.90
6357;DHT22;3211;53.452;-2.264;2023-03-07T02:11:49;3.70;99.90
6357;DHT22;3211;53.452;-2.264;2023-03-07T02:14:16;3.80;99.90
6357;DHT22;3211;53.452;-2.264;2023-03-07T02:16:43;3.70;99.90
6357;DHT22;3211;53.452;-2.264;2023-03-07T02:19:21;3.90;99.90
6357;DHT22;3211;53.452;-2.264;2023-03-07T02:21:56;3.90;99.90
6357;DHT22;3211;53.452;-2.264;2023-03-07T02:24:29;3.80;99.90
6357;DHT22;3211;53.452;-2.264;2023-03-07T02:26:59;3.90;99.90
6357;DHT22;3211;53.452;-2.264;2023-03-07T02:29:26;3.90;99.90
6357;DHT22;3211;53.452;-2.264;2023-03-07T02:31:53;3.90;99.90
6357;DHT22;3211;53.452;-2.264;2023-03-07T02:34:21;3.90;99.90
6357;DHT22;3211;53.452;-2.264;2023-03-07T02:36:49;3.90;99.90
6357;DHT22;3211;53.452;-2.264;2023-03-07T02:39:19;3.90;99.90
6357;DHT22;3211;53.452;-2.264;2023-03-07T02:41:49;3.90;99.90
6357;DHT22;3211;53.452;-2.264;2023-03-07T02:44:19;3.90;99.90
6357;DHT22;3211;53.452;-2.264;2023-03-07T02:46:46;3.90;99.90
6357;DHT22;3211;53.452;-2.264;2023-03-07T02:49:13;3.90;99.90
6357;DHT22;3211;53.452;-2.264;2023-03-07T02:51:40;3.90;99.90
6357;DHT22;3211;53.452;-2.264;2023-03-07T02:54:07;4.00;99.90
6357;DHT22;3211;53.452;-2.264;2023-03-07T02:56:34;4.00;99.90
6357;DHT22;3211;53.452;-2.264;2023-03-07T02:59:01;4.00;99.90
6357;DHT22;3211;53.452;-2.264;2023-03-07T03:01:29;4.00;99.90
6357;DHT22;3211;53.452;-2.264;2023-03-07T03:03:57;4.00;99.90
6357;DHT22;3211;53.452;-2.264;2023-03-07T03:06:24;4.10;99.90
6357;DHT22;3211;53.452;-2.264;2023-03-07T03:08:51;4.00;99.90
6357;DHT22;3211;53.452;-2.264;2023-03-07T03:11:17;3.90;99.90
6357;DHT22;3211;53.452;-2.264;2023-03-07T03:13:44;3.90;99.90
6357;DHT22;3211;53.452;-2.264;2023-03-07T03:16:11;3.90;99.90
6357;DHT22;3211;53.452;-2.264;2023-03-07T03:18:39;3.90;99.90
6357;DHT22;3211;53.452;-2.264;2023-03-07T03:21:07;3.90;99.90
6357;DHT22;3211;53.452;-2.264;2023-03-07T03:23:34;3.90;98.00
6357;DHT22;3211;53.452;-2.264;2023-03-07T03:26:04;3.90;94.60
6357;DHT22;3211;53.452;-2.264;2023-03-07T03:28:32;3.90;90.80
6357;DHT22;3211;53.452;-2.264;2023-03-07T03:31:02;3.90;90.40
6357;DHT22;3211;53.452;-2.264;2023-03-07T03:33:29;4.00;91.70
6357;DHT22;3211;53.452;-2.264;2023-03-07T03:35:58;3.90;97.50
6357;DHT22;3211;53.452;-2.264;2023-03-07T03:38:26;3.90;98.60
6357;DHT22;3211;53.452;-2.264;2023-03-07T03:40:52;4.00;99.80
6357;DHT22;3211;53.452;-2.264;2023-03-07T03:43:20;3.90;96.00
6357;DHT22;3211;53.452;-2.264;2023-03-07T03:45:53;4.00;98.20
6357;DHT22;3211;53.452;-2.264;2023-03-07T03:48:20;4.00;96.50
6357;DHT22;3211;53.452;-2.264;2023-03-07T03:50:47;4.00;97.10
6357;DHT22;3211;53.452;-2.264;2023-03-07T03:53:15;4.00;92.80
6357;DHT22;3211;53.452;-2.264;2023-03-07T03:55:42;4.00;91.60
6357;DHT22;3211;53.452;-2.264;2023-03-07T03:58:09;4.00;93.00
6357;DHT22;3211;53.452;-2.264;2023-03-07T04:00:36;4.00;90.90
6357;DHT22;3211;53.452;-2.264;2023-03-07T04:03:03;4.00;86.40
6357;DHT22;3211;53.452;-2.264;2023-03-07T04:05:32;3.90;79.50
6357;DHT22;3211;53.452;-2.264;2023-03-07T04:07:59;3.90;76.60
6357;DHT22;3211;53.452;-2.264;2023-03-07T04:10:27;3.80;72.60
6357;DHT22;3211;53.452;-2.264;2023-03-07T04:12:54;3.80;68.10
6357;DHT22;3211;53.452;-2.264;2023-03-07T04:15:21;3.80;71.10
6357;DHT22;3211;53.452;-2.264;2023-03-07T04:17:49;3.60;65.90
6357;DHT22;3211;53.452;-2.264;2023-03-07T04:20:16;3.70;57.90
6357;DHT22;3211;53.452;-2.264;2023-03-07T04:22:43;3.60;57.10
6357;DHT22;3211;53.452;-2.264;2023-03-07T04:25:10;3.70;63.20
6357;DHT22;3211;53.452;-2.264;2023-03-07T04:27:38;3.70;54.80
6357;DHT22;3211;53.452;-2.264;2023-03-07T04:30:06;3.70;54.80
6357;DHT22;3211;53.452;-2.264;2023-03-07T04:32:33;3.70;59.80
6357;DHT22;3211;53.452;-2.264;2023-03-07T04:35:01;3.60;66.80
6357;DHT22;3211;53.452;-2.264;2023-03-07T04:37:28;3.50;72.10
6357;DHT22;3211;53.452;-2.264;2023-03-07T04:39:55;3.40;76.50
6357;DHT22;3211;53.452;-2.264;2023-03-07T04:42:22;3.30;76.70
6357;DHT22;3211;53.452;-2.264;2023-03-07T04:44:51;3.20;84.00
6357;DHT22;3211;53.452;-2.264;2023-03-07T04:47:17;3.10;89.80
6357;DHT22;3211;53.452;-2.264;2023-03-07T04:49:44;3.10;93.00
6357;DHT22;3211;53.452;-2.264;2023-03-07T04:52:11;2.90;94.70
6357;DHT22;3211;53.452;-2.264;2023-03-07T04:54:38;2.90;96.40
6357;DHT22;3211;53.452;-2.264;2023-03-07T04:57:06;2.80;95.90
6357;DHT22;3211;53.452;-2.264;2023-03-07T04:59:33;2.80;97.60
6357;DHT22;3211;53.452;-2.264;2023-03-07T05:02:05;2.70;99.90
6357;DHT22;3211;53.452;-2.264;2023-03-07T05:04:32;2.70;99.90
6357;DHT22;3211;53.452;-2.264;2023-03-07T05:06:59;2.70;99.90
6357;DHT22;3211;53.452;-2.264;2023-03-07T05:09:26;2.60;99.90
6357;DHT22;3211;53.452;-2.264;2023-03-07T05:11:53;2.60;99.90
6357;DHT22;3211;53.452;-2.264;2023-03-07T05:14:20;2.50;99.90
6357;DHT22;3211;53.452;-2.264;2023-03-07T05:16:47;2.40;99.90
6357;DHT22;3211;53.452;-2.264;2023-03-07T05:19:15;2.40;99.90
6357;DHT22;3211;53.452;-2.264;2023-03-07T05:21:42;2.40;99.90
6357;DHT22;3211;53.452;-2.264;2023-03-07T05:24:09;2.30;99.90
6357;DHT22;3211;53.452;-2.264;2023-03-07T05:26:36;2.40;99.90
6357;DHT22;3211;53.452;-2.264;2023-03-07T05:29:03;2.40;99.90
6357;DHT22;3211;53.452;-2.264;2023-03-07T05:31:30;2.30;99.90
6357;DHT22;3211;53.452;-2.264;2023-03-07T05:33:57;2.40;99.90
6357;DHT22;3211;53.452;-2.264;2023-03-07T05:36:25;2.40;99.90
6357;DHT22;3211;53.452;-2.264;2023-03-07T05:38:53;2.40;99.90
6357;DHT22;3211;53.452;-2.264;2023-03-07T05:41:21;2.40;99.90
6357;DHT22;3211;53.452;-2.264;2023-03-07T05:43:48;2.30;99.90
6357;DHT22;3211;53.452;-2.264;2023-03-07T05:46:15;2.30;99.90
6357;DHT22;3211;53.452;-2.264;2023-03-07T05:48:42;2.30;99.90
6357;DHT22;3211;53.452;-2.264;2023-03-07T05:51:08;2.40;99.90
6357;DHT22;3211;53.452;-2.264;2023-03-07T05:53:37;2.30;99.90
6357;DHT22;3211;53.452;-2.264;2023-03-07T05:56:04;2.30;99.90
6357;DHT22;3211;53.452;-2.264;2023-03-07T05:58:31;2.30;99.90
6357;DHT22;3211;53.452;-2.264;2023-03-07T06:01:00;2.40;99.90
6357;DHT22;3211;53.452;-2.264;2023-03-07T06:03:27;2.40;99.90
6357;DHT22;3211;53.452;-2.264;2023-03-07T06:05:54;2.30;99.90
6357;DHT22;3211;53.452;-2.264;2023-03-07T06:08:21;2.30;99.90
6357;DHT22;3211;53.452;-2.264;2023-03-07T06:10:50;2.30;99.90
6357;DHT22;3211;53.452;-2.264;2023-03-07T06:13:18;2.20;99.90
6357;DHT22;3211;53.452;-2.264;2023-03-07T06:15:48;2.20;99.90
6357;DHT22;3211;53.452;-2.264;2023-03-07T06:18:15;2.20;99.90
6357;DHT22;3211;53.452;-2.264;2023-03-07T06:20:42;2.10;99.20
6357;DHT22;3211;53.452;-2.264;2023-03-07T06:23:09;2.10;99.90
6357;DHT22;3211;53.452;-2.264;2023-03-07T06:25:37;2.10;98.60
6357;DHT22;3211;53.452;-2.264;2023-03-07T06:28:05;2.10;97.30
6357;DHT22;3211;53.452;-2.264;2023-03-07T06:30:32;2.00;97.80
6357;DHT22;3211;53.452;-2.264;2023-03-07T06:32:59;1.90;99.90
6357;DHT22;3211;53.452;-2.264;2023-03-07T06:35:26;1.80;99.90
6357;DHT22;3211;53.452;-2.264;2023-03-07T06:37:53;1.70;99.90
6357;DHT22;3211;53.452;-2.264;2023-03-07T06:40:20;1.70;99.90
6357;DHT22;3211;53.452;-2.264;2023-03-07T06:42:47;1.60;99.90
6357;DHT22;3211;53.452;-2.264;2023-03-07T06:45:15;1.60;99.90
6357;DHT22;3211;53.452;-2.264;2023-03-07T06:47:42;1.50;99.90
6357;DHT22;3211;53.452;-2.264;2023-03-07T06:50:09;1.50;99.90
6357;DHT22;3211;53.452;-2.264;2023-03-07T06:52:36;1.50;99.90
6357;DHT22;3211;53.452;-2.264;2023-03-07T06:55:04;1.50;99.90
6357;DHT22;3211;53.452;-2.264;2023-03-07T06:57:31;1.50;99.90
6357;DHT22;3211;53.452;-2.264;2023-03-07T06:59:59;1.50;99.90
6357;DHT22;3211;53.452;-2.264;2023-03-07T07:02:27;1.50;99.90
6357;DHT22;3211;53.452;-2.264;2023-03-07T07:04:54;1.50;99.90
6357;DHT22;3211;53.452;-2.264;2023-03-07T07:07:22;1.50;99.90
6357;DHT22;3211;53.452;-2.264;2023-03-07T07:09:49;1.50;99.90
6357;DHT22;3211;53.452;-2.264;2023-03-07T07:12:17;1.50;99.90
6357;DHT22;3211;53.452;-2.264;2023-03-07T07:14:44;1.50;99.90
6357;DHT22;3211;53.452;-2.264;2023-03-07T07:17:11;1.50;99.90
6357;DHT22;3211;53.452;-2.264;2023-03-07T07:19:39;1.50;99.90
6357;DHT22;3211;53.452;-2.264;2023-03-07T07:22:06;1.50;99.90
6357;DHT22;3211;53.452;-2.264;2023-03-07T07:24:36;1.70;99.90
6357;DHT22;3211;53.452;-2.264;2023-03-07T07:27:04;1.70;99.90
6357;DHT22;3211;53.452;-2.264;2023-03-07T07:29:31;1.70;99.90
6357;DHT22;3211;53.452;-2.264;2023-03-07T07:31:58;1.80;99.90
6357;DHT22;3211;53.452;-2.264;2023-03-07T07:34:25;1.80;99.90
6357;DHT22;3211;53.452;-2.264;2023-03-07T07:36:53;1.90;99.90
6357;DHT22;3211;53.452;-2.264;2023-03-07T07:39:21;1.90;99.90
6357;DHT22;3211;53.452;-2.264;2023-03-07T07:41:49;1.90;99.90
6357;DHT22;3211;53.452;-2.264;2023-03-07T07:44:16;1.90;99.90
6357;DHT22;3211;53.452;-2.264;2023-03-07T07:46:43;1.90;99.90
6357;DHT22;3211;53.452;-2.264;2023-03-07T07:49:09;2.00;99.90
6357;DHT22;3211;53.452;-2.264;2023-03-07T07:51:36;2.10;99.90
6357;DHT22;3211;53.452;-2.264;2023-03-07T07:54:06;2.00;96.40
6357;DHT22;3211;53.452;-2.264;2023-03-07T07:56:33;2.10;93.80
6357;DHT22;3211;53.452;-2.264;2023-03-07T07:59:01;2.10;94.50
6357;DHT22;3211;53.452;-2.264;2023-03-07T08:01:27;2.20;86.80
6357;DHT22;3211;53.452;-2.264;2023-03-07T08:03:54;2.30;79.80
6357;DHT22;3211;53.452;-2.264;2023-03-07T08:06:23;2.30;73.00
6357;DHT22;3211;53.452;-2.264;2023-03-07T08:08:51;2.20;63.40
6357;DHT22;3211;53.452;-2.264;2023-03-07T08:11:20;2.30;62.60
6357;DHT22;3211;53.452;-2.264;2023-03-07T08:13:48;2.30;62.50
6357;DHT22;3211;53.452;-2.264;2023-03-07T08:16:16;2.40;73.10
6357;DHT22;3211;53.452;-2.264;2023-03-07T08:18:47;2.40;66.70
6357;DHT22;3211;53.452;-2.264;2023-03-07T08:21:14;2.20;51.70
6357;DHT22;3211;53.452;-2.264;2023-03-07T08:23:41;2.30;57.90
6357;DHT22;3211;53.452;-2.264;2023-03-07T08:26:08;2.40;56.30
6357;DHT22;3211;53.452;-2.264;2023-03-07T08:28:39;2.30;44.30
6357;DHT22;3211;53.452;-2.264;2023-03-07T08:31:07;2.30;43.60
6357;DHT22;3211;53.452;-2.264;2023-03-07T08:33:35;2.40;40.30
6357;DHT22;3211;53.452;-2.264;2023-03-07T08:36:02;2.40;35.50
6357;DHT22;3211;53.452;-2.264;2023-03-07T08:38:29;2.40;31.70
6357;DHT22;3211;53.452;-2.264;2023-03-07T08:40:59;2.50;34.30
6357;DHT22;3211;53.452;-2.264;2023-03-07T08:43:27;2.50;28.40
6357;DHT22;3211;53.452;-2.264;2023-03-07T08:45:56;2.60;30.00
6357;DHT22;3211;53.452;-2.264;2023-03-07T08:48:23;2.60;25.10
6357;DHT22;3211;53.452;-2.264;2023-03-07T08:50:50;2.60;24.50
6357;DHT22;3211;53.452;-2.264;2023-03-07T08:53:17;2.70;26.30
6357;DHT22;3211;53.452;-2.264;2023-03-07T08:55:45;2.80;23.90
6357;DHT22;3211;53.452;-2.264;2023-03-07T08:58:12;3.00;23.10
6357;DHT22;3211;53.452;-2.264;2023-03-07T09:00:39;3.00;17.20
6357;DHT22;3211;53.452;-2.264;2023-03-07T09:03:08;3.10;17.40
6357;DHT22;3211;53.452;-2.264;2023-03-07T09:05:36;3.30;15.30
6357;DHT22;3211;53.452;-2.264;2023-03-07T09:08:04;3.40;14.50
6357;DHT22;3211;53.452;-2.264;2023-03-07T09:10:31;3.30;8.70
6357;DHT22;3211;53.452;-2.264;2023-03-07T09:12:58;3.20;5.50
6357;DHT22;3211;53.452;-2.264;2023-03-07T09:15:25;3.10;1.00
6357;DHT22;3211;53.452;-2.264;2023-03-07T09:17:52;3.20;5.10
6357;DHT22;3211;53.452;-2.264;2023-03-07T09:20:20;3.20;6.20
6357;DHT22;3211;53.452;-2.264;2023-03-07T09:22:47;3.50;9.70
6357;DHT22;3211;53.452;-2.264;2023-03-07T09:25:16;3.30;1.00
6357;DHT22;3211;53.452;-2.264;2023-03-07T09:27:43;3.50;4.00
6357;DHT22;3211;53.452;-2.264;2023-03-07T09:30:11;3.50;1.00
6357;DHT22;3211;53.452;-2.264;2023-03-07T09:32:38;3.50;1.00
6357;DHT22;3211;53.452;-2.264;2023-03-07T09:35:06;3.70;1.00
6357;DHT22;3211;53.452;-2.264;2023-03-07T09:37:34;3.80;1.00
6357;DHT22;3211;53.452;-2.264;2023-03-07T09:40:02;3.90;1.00
6357;DHT22;3211;53.452;-2.264;2023-03-07T09:42:37;3.90;1.00
6357;DHT22;3211;53.452;-2.264;2023-03-07T09:45:20;4.20;1.00
6357;DHT22;3211;53.452;-2.264;2023-03-07T09:48:27;4.40;1.00
6357;DHT22;3211;53.452;-2.264;2023-03-07T09:51:01;4.10;1.00
6357;DHT22;3211;53.452;-2.264;2023-03-07T09:53:36;4.00;1.00
6357;DHT22;3211;53.452;-2.264;2023-03-07T09:56:10;4.30;1.00
6357;DHT22;3211;53.452;-2.264;2023-03-07T09:58:42;4.50;1.00
6357;DHT22;3211;53.452;-2.264;2023-03-07T10:01:12;4.40;1.00
6357;DHT22;3211;53.452;-2.264;2023-03-07T10:03:45;4.40;1.00
6357;DHT22;3211;53.452;-2.264;2023-03-07T10:06:21;4.40;1.00
6357;DHT22;3211;53.452;-2.264;2023-03-07T10:08:52;4.60;1.00
6357;DHT22;3211;53.452;-2.264;2023-03-07T10:11:26;4.90;1.00
6357;DHT22;3211;53.452;-2.264;2023-03-07T10:14:07;5.00;1.00
6357;DHT22;3211;53.452;-2.264;2023-03-07T10:16:39;5.00;1.00
6357;DHT22;3211;53.452;-2.264;2023-03-07T10:19:17;4.60;1.00
6357;DHT22;3211;53.452;-2.264;2023-03-07T10:21:51;4.60;1.00
6357;DHT22;3211;53.452;-2.264;2023-03-07T10:24:35;4.90;1.00
6357;DHT22;3211;53.452;-2.264;2023-03-07T10:27:06;5.20;1.00
6357;DHT22;3211;53.452;-2.264;2023-03-07T10:29:39;5.30;1.00
6357;DHT22;3211;53.452;-2.264;2023-03-07T10:32:22;5.70;1.00
6357;DHT22;3211;53.452;-2.264;2023-03-07T10:34:56;6.20;1.00
6357;DHT22;3211;53.452;-2.264;2023-03-07T10:37:33;6.10;1.00
6357;DHT22;3211;53.452;-2.264;2023-03-07T10:40:04;6.30;1.00
6357;DHT22;3211;53.452;-2.264;2023-03-07T10:42:34;6.60;1.00
6357;DHT22;3211;53.452;-2.264;2023-03-07T10:45:04;6.20;1.00
6357;DHT22;3211;53.452;-2.264;2023-03-07T10:47:32;6.30;1.00
6357;DHT22;3211;53.452;-2.264;2023-03-07T10:50:11;6.20;1.00
6357;DHT22;3211;53.452;-2.264;2023-03-07T10:52:46;6.00;1.00
6357;DHT22;3211;53.452;-2.264;2023-03-07T10:55:38;6.10;1.00
6357;DHT22;3211;53.452;-2.264;2023-03-07T10:58:18;6.20;1.00
6357;DHT22;3211;53.452;-2.264;2023-03-07T11:00:55;5.80;1.00
6357;DHT22;3211;53.452;-2.264;2023-03-07T11:03:26;5.70;1.00
6357;DHT22;3211;53.452;-2.264;2023-03-07T11:05:55;6.20;1.00
6357;DHT22;3211;53.452;-2.264;2023-03-07T11:08:28;6.70;1.00
6357;DHT22;3211;53.452;-2.264;2023-03-07T11:10:57;7.00;1.00
6357;DHT22;3211;53.452;-2.264;2023-03-07T11:13:25;7.30;1.00
6357;DHT22;3211;53.452;-2.264;2023-03-07T11:16:08;7.40;1.00
6357;DHT22;3211;53.452;-2.264;2023-03-07T11:18:37;6.90;1.00
6357;DHT22;3211;53.452;-2.264;2023-03-07T11:21:05;7.10;1.00
6357;DHT22;3211;53.452;-2.264;2023-03-07T11:23:32;7.10;1.00
6357;DHT22;3211;53.452;-2.264;2023-03-07T11:26:15;6.90;1.00
6357;DHT22;3211;53.452;-2.264;2023-03-07T11:28:43;6.20;1.00
6357;DHT22;3211;53.452;-2.264;2023-03-07T11:31:17;6.20;1.00
6357;DHT22;3211;53.452;-2.264;2023-03-07T11:33:50;5.80;1.00
6357;DHT22;3211;53.452;-2.264;2023-03-07T11:36:21;5.90;1.00
6357;DHT22;3211;53.452;-2.264;2023-03-07T11:38:58;5.80;1.00
6357;DHT22;3211;53.452;-2.264;2023-03-07T11:41:30;6.20;1.00
6357;DHT22;3211;53.452;-2.264;2023-03-07T11:44:17;6.50;1.00
6357;DHT22;3211;53.452;-2.264;2023-03-07T11:47:02;7.30;1.00
6357;DHT22;3211;53.452;-2.264;2023-03-07T11:49:43;7.70;1.00
6357;DHT22;3211;53.452;-2.264;2023-03-07T11:52:21;8.00;1.00
6357;DHT22;3211;53.452;-2.264;2023-03-07T11:54:58;7.80;1.00
6357;DHT22;3211;53.452;-2.264;2023-03-07T11:57:42;7.40;1.00
6357;DHT22;3211;53.452;-2.264;2023-03-07T12:00:30;6.90;1.00
6357;DHT22;3211;53.452;-2.264;2023-03-07T12:03:22;6.70;1.00
6357;DHT22;3211;53.452;-2.264;2023-03-07T12:06:15;6.50;1.00
6357;DHT22;3211;53.452;-2.264;2023-03-07T12:09:12;6.60;1.00
6357;DHT22;3211;53.452;-2.264;2023-03-07T12:11:56;6.90;1.00
6357;DHT22;3211;53.452;-2.264;2023-03-07T12:14:34;7.60;1.00
6357;DHT22;3211;53.452;-2.264;2023-03-07T12:17:11;8.30;1.00
6357;DHT22;3211;53.452;-2.264;2023-03-07T12:20:14;8.80;1.00
6357;DHT22;3211;53.452;-2.264;2023-03-07T12:22:55;8.80;1.00
6357;DHT22;3211;53.452;-2.264;2023-03-07T12:25:29;8.70;1.00
6357;DHT22;3211;53.452;-2.264;2023-03-07T12:28:05;8.30;1.00
6357;DHT22;3211;53.452;-2.264;2023-03-07T12:30:43;8.00;1.00
6357;DHT22;3211;53.452;-2.264;2023-03-07T12:33:18;7.70;1.00
6357;DHT22;3211;53.452;-2.264;2023-03-07T12:35:48;7.90;1.00
6357;DHT22;3211;53.452;-2.264;2023-03-07T12:38:25;8.40;1.00
6357;DHT22;3211;53.452;-2.264;2023-03-07T12:40:57;8.70;1.00
6357;DHT22;3211;53.452;-2.264;2023-03-07T12:43:28;8.90;1.00
6357;DHT22;3211;53.452;-2.264;2023-03-07T12:46:06;9.40;1.00
6357;DHT22;3211;53.452;-2.264;2023-03-07T12:48:39;8.50;1.00
6357;DHT22;3211;53.452;-2.264;2023-03-07T12:51:12;7.70;1.00
6357;DHT22;3211;53.452;-2.264;2023-03-07T12:53:45;8.30;1.00
6357;DHT22;3211;53.452;-2.264;2023-03-07T12:56:18;8.40;1.00
6357;DHT22;3211;53.452;-2.264;2023-03-07T12:58:49;8.30;1.00
6357;DHT22;3211;53.452;-2.264;2023-03-07T13:01:24;8.20;1.00
6357;DHT22;3211;53.452;-2.264;2023-03-07T13:03:55;7.80;1.00
6357;DHT22;3211;53.452;-2.264;2023-03-07T13:06:24;7.70;1.00
6357;DHT22;3211;53.452;-2.264;2023-03-07T13:08:53;7.70;1.00
6357;DHT22;3211;53.452;-2.264;2023-03-07T13:11:23;8.40;1.00
6357;DHT22;3211;53.452;-2.264;2023-03-07T13:13:52;9.00;1.00
6357;DHT22;3211;53.452;-2.264;2023-03-07T13:16:41;9.20;1.00
6357;DHT22;3211;53.452;-2.264;2023-03-07T13:22:57;8.30;1.00
6357;DHT22;3211;53.452;-2.264;2023-03-07T13:25:48;8.50;1.00
6357;DHT22;3211;53.452;-2.264;2023-03-07T13:28:50;9.10;1.00
6357;DHT22;3211;53.452;-2.264;2023-03-07T13:31:39;9.20;1.00
6357;DHT22;3211;53.452;-2.264;2023-03-07T13:37:55;8.50;1.00
6357;DHT22;3211;53.452;-2.264;2023-03-07T13:40:47;8.00;1.00
6357;DHT22;3211;53.452;-2.264;2023-03-07T13:46:46;7.70;1.00
6357;DHT22;3211;53.452;-2.264;2023-03-07T13:49:32;7.90;1.00
6357;DHT22;3211;53.452;-2.264;2023-03-07T13:55:01;8.50;1.00
6357;DHT22;3211;53.452;-2.264;2023-03-07T13:57:38;9.30;1.00
6357;DHT22;3211;53.452;-2.264;2023-03-07T14:00:24;9.30;1.00
6357;DHT22;3211;53.452;-2.264;2023-03-07T14:02:54;7.70;1.00
6357;DHT22;3211;53.452;-2.264;2023-03-07T14:05:21;7.90;1.00
6357;DHT22;3211;53.452;-2.264;2023-03-07T14:07:49;7.50;1.00
6357;DHT22;3211;53.452;-2.264;2023-03-07T14:10:22;7.40;1.00
6357;DHT22;3211;53.452;-2.264;2023-03-07T14:13:09;8.10;1.00
6357;DHT22;3211;53.452;-2.264;2023-03-07T14:15:46;8.40;1.00
6357;DHT22;3211;53.452;-2.264;2023-03-07T14:18:25;8.10;1.00
6357;DHT22;3211;53.452;-2.264;2023-03-07T14:20:56;8.50;1.00
6357;DHT22;3211;53.452;-2.264;2023-03-07T14:26:32;8.90;1.00
6357;DHT22;3211;53.452;-2.264;2023-03-07T14:29:02;9.70;1.00
6357;DHT22;3211;53.452;-2.264;2023-03-07T14:31:40;9.60;1.00
6357;DHT22;3211;53.452;-2.264;2023-03-07T14:34:18;9.10;1.00
6357;DHT22;3211;53.452;-2.264;2023-03-07T14:36:49;9.30;1.00
6357;DHT22;3211;53.452;-2.264;2023-03-07T14:39:19;10.70;1.00
6357;DHT22;3211;53.452;-2.264;2023-03-07T14:41:51;11.50;1.00
6357;DHT22;3211;53.452;-2.264;2023-03-07T14:44:36;10.40;1.00
6357;DHT22;3211;53.452;-2.264;2023-03-07T14:47:15;12.00;1.00
6357;DHT22;3211;53.452;-2.264;2023-03-07T14:49:50;12.60;1.00
6357;DHT22;3211;53.452;-2.264;2023-03-07T14:52:21;13.10;1.00
6357;DHT22;3211;53.452;-2.264;2023-03-07T14:54:51;13.30;1.00
6357;DHT22;3211;53.452;-2.264;2023-03-07T14:57:23;14.80;1.00
6357;DHT22;3211;53.452;-2.264;2023-03-07T15:00:04;12.90;1.00
6357;DHT22;3211;53.452;-2.264;2023-03-07T15:02:32;14.80;1.00
6357;DHT22;3211;53.452;-2.264;2023-03-07T15:05:01;13.90;1.00
6357;DHT22;3211;53.452;-2.264;2023-03-07T15:07:29;10.40;1.00
6357;DHT22;3211;53.452;-2.264;2023-03-07T15:09:56;8.20;1.00
6357;DHT22;3211;53.452;-2.264;2023-03-07T15:12:25;7.70;1.00
6357;DHT22;3211;53.452;-2.264;2023-03-07T15:14:57;9.90;1.00
6357;DHT22;3211;53.452;-2.264;2023-03-07T15:17:27;13.00;1.00
6357;DHT22;3211;53.452;-2.264;2023-03-07T15:19:57;14.60;1.00
6357;DHT22;3211;53.452;-2.264;2023-03-07T15:22:29;14.40;1.00
6357;DHT22;3211;53.452;-2.264;2023-03-07T15:24:56;15.00;1.00
6357;DHT22;3211;53.452;-2.264;2023-03-07T15:27:26;16.20;1.00
6357;DHT22;3211;53.452;-2.264;2023-03-07T15:29:55;11.40;1.00
6357;DHT22;3211;53.452;-2.264;2023-03-07T15:32:32;8.70;1.00
6357;DHT22;3211;53.452;-2.264;2023-03-07T15:35:00;7.80;1.00
6357;DHT22;3211;53.452;-2.264;2023-03-07T15:37:30;7.80;1.00
6357;DHT22;3211;53.452;-2.264;2023-03-07T15:39:59;7.00;1.00
6357;DHT22;3211;53.452;-2.264;2023-03-07T15:42:26;11.30;1.00
6357;DHT22;3211;53.452;-2.264;2023-03-07T15:44:54;15.00;1.00
6357;DHT22;3211;53.452;-2.264;2023-03-07T15:47:23;9.50;1.00
6357;DHT22;3211;53.452;-2.264;2023-03-07T15:49:51;7.50;1.00
6357;DHT22;3211;53.452;-2.264;2023-03-07T15:52:24;6.90;1.00
6357;DHT22;3211;53.452;-2.264;2023-03-07T15:54:55;13.00;1.00
6357;DHT22;3211;53.452;-2.264;2023-03-07T15:57:24;16.90;1.00
6357;DHT22;3211;53.452;-2.264;2023-03-07T15:59:56;16.60;1.00
6357;DHT22;3211;53.452;-2.264;2023-03-07T16:02:38;13.70;1.00
6357;DHT22;3211;53.452;-2.264;2023-03-07T16:07:50;12.80;1.00
6357;DHT22;3211;53.452;-2.264;2023-03-07T16:10:19;11.50;1.00
6357;DHT22;3211;53.452;-2.264;2023-03-07T16:12:47;10.20;1.00
6357;DHT22;3211;53.452;-2.264;2023-03-07T16:15:15;11.50;1.00
6357;DHT22;3211;53.452;-2.264;2023-03-07T16:17:43;14.50;1.00
6357;DHT22;3211;53.452;-2.264;2023-03-07T16:20:13;14.50;1.00
6357;DHT22;3211;53.452;-2.264;2023-03-07T16:22:40;16.00;1.00
6357;DHT22;3211;53.452;-2.264;2023-03-07T16:25:08;13.70;1.00
6357;DHT22;3211;53.452;-2.264;2023-03-07T16:27:38;10.90;1.00
6357;DHT22;3211;53.452;-2.264;2023-03-07T16:30:12;10.50;1.00
6357;DHT22;3211;53.452;-2.264;2023-03-07T16:32:39;12.40;1.00
6357;DHT22;3211;53.452;-2.264;2023-03-07T16:35:13;12.50;1.00
6357;DHT22;3211;53.452;-2.264;2023-03-07T16:37:40;14.30;1.00
6357;DHT22;3211;53.452;-2.264;2023-03-07T16:40:08;13.90;1.00
6357;DHT22;3211;53.452;-2.264;2023-03-07T16:42:36;10.60;1.00
6357;DHT22;3211;53.452;-2.264;2023-03-07T16:45:06;8.20;1.00
6357;DHT22;3211;53.452;-2.264;2023-03-07T16:47:36;7.60;1.00
6357;DHT22;3211;53.452;-2.264;2023-03-07T16:50:07;7.50;1.00
6357;DHT22;3211;53.452;-2.264;2023-03-07T16:52:37;7.10;1.00